sensor_id;sensor_type;location;lat;lon;timestamp;P1;durP1;ratioP1;P2;durP2;ratioP2
45065;SDS011;30830;53.704;10.004;2023-07-02T00:01:10;2.53;;;2.08;;
45065;SDS011;30830;53.704;10.004;2023-07-02T00:03:37;3.60;;;2.13;;
45065;SDS011;30830;53.704;10.004;2023-07-02T00:06:03;3.92;;;2.28;;
45065;SDS011;30830;53.704;10.004;2023-07-02T00:08:29;4.88;;;2.53;;
45065;SDS011;30830;53.704;10.004;2023-07-02T00:10:55;6.80;;;2.65;;
45065;SDS011;30830;53.704;10.004;2023-07-02T00:13:20;3.78;;;2.20;;
45065;SDS011;30830;53.704;10.004;2023-07-02T00:15:46;5.88;;;2.47;;
45065;SDS011;30830;53.704;10.004;2023-07-02T00:18:11;3.35;;;2.40;;
45065;SDS011;30830;53.704;10.004;2023-07-02T00:20:41;3.88;;;2.42;;
45065;SDS011;30830;53.704;10.004;2023-07-02T00:23:07;7.20;;;2.70;;
45065;SDS011;30830;53.704;10.004;2023-07-02T00:25:35;2.50;;;2.28;;
45065;SDS011;30830;53.704;10.004;2023-07-02T00:28:01;3.58;;;2.55;;
45065;SDS011;30830;53.704;10.004;2023-07-02T00:30:27;4.80;;;3.25;;
45065;SDS011;30830;53.704;10.004;2023-07-02T00:32:52;5.78;;;3.10;;
45065;SDS011;30830;53.704;10.004;2023-07-02T00:35:18;6.05;;;3.20;;
45065;SDS011;30830;53.704;10.004;2023-07-02T00:37:44;4.80;;;3.10;;
45065;SDS011;30830;53.704;10.004;2023-07-02T00:40:09;6.60;;;2.85;;
45065;SDS011;30830;53.704;10.004;2023-07-02T00:42:35;6.78;;;3.30;;
45065;SDS011;30830;53.704;10.004;2023-07-02T00:45:01;6.93;;;3.45;;
45065;SDS011;30830;53.704;10.004;2023-07-02T00:47:30;9.50;;;2.90;;
45065;SDS011;30830;53.704;10.004;2023-07-02T00:49:58;7.20;;;2.80;;
45065;SDS011;30830;53.704;10.004;2023-07-02T00:52:23;3.13;;;2.83;;
45065;SDS011;30830;53.704;10.004;2023-07-02T00:54:50;3.40;;;2.83;;
45065;SDS011;30830;53.704;10.004;2023-07-02T00:57:16;4.63;;;3.05;;
45065;SDS011;30830;53.704;10.004;2023-07-02T00:59:42;5.63;;;3.15;;
45065;SDS011;30830;53.704;10.004;2023-07-02T01:02:08;3.45;;;3.00;;
45065;SDS011;30830;53.704;10.004;2023-07-02T01:04:33;5.15;;;3.33;;
45065;SDS011;30830;53.704;10.004;2023-07-02T01:06:59;5.80;;;2.97;;
45065;SDS011;30830;53.704;10.004;2023-07-02T01:09:24;7.40;;;3.40;;
45065;SDS011;30830;53.704;10.004;2023-07-02T01:11:56;5.30;;;4.03;;
45065;SDS011;30830;53.704;10.004;2023-07-02T01:14:25;4.57;;;3.00;;
45065;SDS011;30830;53.704;10.004;2023-07-02T01:16:56;5.00;;;2.47;;
45065;SDS011;30830;53.704;10.004;2023-07-02T01:22:10;7.75;;;3.40;;
45065;SDS011;30830;53.704;10.004;2023-07-02T01:24:38;5.30;;;3.05;;
45065;SDS011;30830;53.704;10.004;2023-07-02T01:27:04;6.90;;;3.60;;
45065;SDS011;30830;53.704;10.004;2023-07-02T01:29:30;7.88;;;2.95;;
45065;SDS011;30830;53.704;10.004;2023-07-02T01:31:56;8.82;;;3.80;;
45065;SDS011;30830;53.704;10.004;2023-07-02T01:34:22;8.70;;;3.97;;
45065;SDS011;30830;53.704;10.004;2023-07-02T01:36:48;5.18;;;3.42;;
45065;SDS011;30830;53.704;10.004;2023-07-02T01:39:14;6.88;;;3.95;;
45065;SDS011;30830;53.704;10.004;2023-07-02T01:41:44;5.28;;;3.40;;
45065;SDS011;30830;53.704;10.004;2023-07-02T01:44:14;3.80;;;3.20;;
45065;SDS011;30830;53.704;10.004;2023-07-02T01:46:40;4.72;;;4.00;;
45065;SDS011;30830;53.704;10.004;2023-07-02T01:49:05;5.63;;;3.60;;
45065;SDS011;30830;53.704;10.004;2023-07-02T01:51:31;7.25;;;3.85;;
45065;SDS011;30830;53.704;10.004;2023-07-02T01:53:57;6.18;;;3.83;;
45065;SDS011;30830;53.704;10.004;2023-07-02T01:56:22;8.65;;;3.33;;
45065;SDS011;30830;53.704;10.004;2023-07-02T01:58:48;6.35;;;4.00;;
45065;SDS011;30830;53.704;10.004;2023-07-02T02:01:13;5.80;;;3.67;;
45065;SDS011;30830;53.704;10.004;2023-07-02T02:03:39;10.00;;;3.88;;
45065;SDS011;30830;53.704;10.004;2023-07-02T02:06:04;5.20;;;3.42;;
45065;SDS011;30830;53.704;10.004;2023-07-02T02:08:30;7.35;;;4.38;;
45065;SDS011;30830;53.704;10.004;2023-07-02T02:10:55;5.72;;;4.20;;
45065;SDS011;30830;53.704;10.004;2023-07-02T02:13:21;5.60;;;3.90;;
45065;SDS011;30830;53.704;10.004;2023-07-02T02:15:46;7.10;;;4.13;;
45065;SDS011;30830;53.704;10.004;2023-07-02T02:18:12;5.53;;;4.35;;
45065;SDS011;30830;53.704;10.004;2023-07-02T02:20:38;5.45;;;4.03;;
45065;SDS011;30830;53.704;10.004;2023-07-02T02:23:03;7.20;;;3.90;;
45065;SDS011;30830;53.704;10.004;2023-07-02T02:25:29;4.63;;;3.60;;
45065;SDS011;30830;53.704;10.004;2023-07-02T02:27:54;6.25;;;3.75;;
45065;SDS011;30830;53.704;10.004;2023-07-02T02:30:20;11.35;;;4.10;;
45065;SDS011;30830;53.704;10.004;2023-07-02T02:32:46;7.50;;;4.63;;
45065;SDS011;30830;53.704;10.004;2023-07-02T02:35:11;10.38;;;4.47;;
45065;SDS011;30830;53.704;10.004;2023-07-02T02:37:37;6.50;;;4.07;;
45065;SDS011;30830;53.704;10.004;2023-07-02T02:40:04;11.35;;;5.20;;
45065;SDS011;30830;53.704;10.004;2023-07-02T02:42:31;6.57;;;3.58;;
45065;SDS011;30830;53.704;10.004;2023-07-02T02:44:57;5.63;;;3.40;;
45065;SDS011;30830;53.704;10.004;2023-07-02T02:47:22;6.40;;;4.35;;
45065;SDS011;30830;53.704;10.004;2023-07-02T02:49:48;4.70;;;4.07;;
45065;SDS011;30830;53.704;10.004;2023-07-02T02:52:14;5.90;;;4.63;;
45065;SDS011;30830;53.704;10.004;2023-07-02T02:54:40;5.30;;;4.30;;
45065;SDS011;30830;53.704;10.004;2023-07-02T02:57:06;6.28;;;4.10;;
45065;SDS011;30830;53.704;10.004;2023-07-02T02:59:31;5.80;;;4.05;;
45065;SDS011;30830;53.704;10.004;2023-07-02T03:01:57;6.15;;;4.53;;
45065;SDS011;30830;53.704;10.004;2023-07-02T03:04:22;8.40;;;4.13;;
45065;SDS011;30830;53.704;10.004;2023-07-02T03:06:51;6.85;;;4.85;;
45065;SDS011;30830;53.704;10.004;2023-07-02T03:09:18;3.95;;;3.40;;
45065;SDS011;30830;53.704;10.004;2023-07-02T03:11:44;11.32;;;4.50;;
45065;SDS011;30830;53.704;10.004;2023-07-02T03:14:10;7.43;;;4.70;;
45065;SDS011;30830;53.704;10.004;2023-07-02T03:16:36;5.47;;;3.63;;
45065;SDS011;30830;53.704;10.004;2023-07-02T03:19:02;6.18;;;4.07;;
45065;SDS011;30830;53.704;10.004;2023-07-02T03:21:28;9.68;;;4.85;;
45065;SDS011;30830;53.704;10.004;2023-07-02T03:23:54;7.72;;;4.15;;
45065;SDS011;30830;53.704;10.004;2023-07-02T03:26:20;9.00;;;4.38;;
45065;SDS011;30830;53.704;10.004;2023-07-02T03:28:47;4.78;;;4.20;;
45065;SDS011;30830;53.704;10.004;2023-07-02T03:31:12;6.03;;;4.47;;
45065;SDS011;30830;53.704;10.004;2023-07-02T03:33:38;6.35;;;4.68;;
45065;SDS011;30830;53.704;10.004;2023-07-02T03:36:03;6.82;;;4.43;;
45065;SDS011;30830;53.704;10.004;2023-07-02T03:38:29;10.07;;;4.57;;
45065;SDS011;30830;53.704;10.004;2023-07-02T03:40:55;7.32;;;4.20;;
45065;SDS011;30830;53.704;10.004;2023-07-02T03:43:20;12.43;;;4.78;;
45065;SDS011;30830;53.704;10.004;2023-07-02T03:45:46;8.07;;;4.30;;
45065;SDS011;30830;53.704;10.004;2023-07-02T03:48:11;11.20;;;4.78;;
45065;SDS011;30830;53.704;10.004;2023-07-02T03:50:37;7.20;;;4.38;;
45065;SDS011;30830;53.704;10.004;2023-07-02T03:53:02;6.25;;;4.05;;
45065;SDS011;30830;53.704;10.004;2023-07-02T03:55:28;5.80;;;4.25;;
45065;SDS011;30830;53.704;10.004;2023-07-02T03:57:53;7.15;;;4.55;;
45065;SDS011;30830;53.704;10.004;2023-07-02T04:00:19;8.00;;;4.65;;
45065;SDS011;30830;53.704;10.004;2023-07-02T04:02:44;7.03;;;4.43;;
45065;SDS011;30830;53.704;10.004;2023-07-02T04:05:10;7.97;;;4.90;;
45065;SDS011;30830;53.704;10.004;2023-07-02T04:07:36;7.65;;;3.97;;
45065;SDS011;30830;53.704;10.004;2023-07-02T04:10:02;11.40;;;4.80;;
45065;SDS011;30830;53.704;10.004;2023-07-02T04:12:27;6.50;;;4.75;;
45065;SDS011;30830;53.704;10.004;2023-07-02T04:14:53;10.02;;;4.72;;
45065;SDS011;30830;53.704;10.004;2023-07-02T04:17:19;9.07;;;4.30;;
45065;SDS011;30830;53.704;10.004;2023-07-02T04:19:45;11.00;;;4.70;;
45065;SDS011;30830;53.704;10.004;2023-07-02T04:22:10;8.95;;;4.60;;
45065;SDS011;30830;53.704;10.004;2023-07-02T04:24:36;10.40;;;5.60;;
45065;SDS011;30830;53.704;10.004;2023-07-02T04:27:01;12.50;;;5.22;;
45065;SDS011;30830;53.704;10.004;2023-07-02T04:29:27;9.50;;;5.03;;
45065;SDS011;30830;53.704;10.004;2023-07-02T04:31:52;10.18;;;4.80;;
45065;SDS011;30830;53.704;10.004;2023-07-02T04:34:18;10.80;;;5.15;;
45065;SDS011;30830;53.704;10.004;2023-07-02T04:36:46;11.23;;;4.85;;
45065;SDS011;30830;53.704;10.004;2023-07-02T04:39:15;11.30;;;5.38;;
45065;SDS011;30830;53.704;10.004;2023-07-02T04:41:40;15.00;;;5.65;;
45065;SDS011;30830;53.704;10.004;2023-07-02T04:44:06;12.93;;;5.40;;
45065;SDS011;30830;53.704;10.004;2023-07-02T04:46:31;18.60;;;6.45;;
45065;SDS011;30830;53.704;10.004;2023-07-02T04:48:57;11.07;;;5.38;;
45065;SDS011;30830;53.704;10.004;2023-07-02T04:51:22;12.18;;;5.05;;
45065;SDS011;30830;53.704;10.004;2023-07-02T04:53:48;8.90;;;6.18;;
45065;SDS011;30830;53.704;10.004;2023-07-02T04:56:14;9.43;;;5.32;;
45065;SDS011;30830;53.704;10.004;2023-07-02T04:58:39;18.02;;;6.03;;
45065;SDS011;30830;53.704;10.004;2023-07-02T05:01:05;14.77;;;6.07;;
45065;SDS011;30830;53.704;10.004;2023-07-02T05:03:30;11.38;;;5.32;;
45065;SDS011;30830;53.704;10.004;2023-07-02T05:05:56;10.80;;;5.43;;
45065;SDS011;30830;53.704;10.004;2023-07-02T05:08:21;15.88;;;5.95;;
45065;SDS011;30830;53.704;10.004;2023-07-02T05:10:47;14.50;;;5.72;;
45065;SDS011;30830;53.704;10.004;2023-07-02T05:13:12;14.20;;;6.70;;
45065;SDS011;30830;53.704;10.004;2023-07-02T05:15:38;9.35;;;5.40;;
45065;SDS011;30830;53.704;10.004;2023-07-02T05:18:04;14.43;;;6.13;;
45065;SDS011;30830;53.704;10.004;2023-07-02T05:20:31;18.20;;;6.13;;
45065;SDS011;30830;53.704;10.004;2023-07-02T05:22:57;21.20;;;6.13;;
45065;SDS011;30830;53.704;10.004;2023-07-02T05:25:22;19.35;;;6.85;;
45065;SDS011;30830;53.704;10.004;2023-07-02T05:27:48;16.05;;;5.68;;
45065;SDS011;30830;53.704;10.004;2023-07-02T05:30:13;12.80;;;6.35;;
45065;SDS011;30830;53.704;10.004;2023-07-02T05:32:39;15.13;;;6.20;;
45065;SDS011;30830;53.704;10.004;2023-07-02T05:35:05;12.43;;;5.88;;
45065;SDS011;30830;53.704;10.004;2023-07-02T05:37:30;16.02;;;6.47;;
45065;SDS011;30830;53.704;10.004;2023-07-02T05:39:56;15.63;;;6.60;;
45065;SDS011;30830;53.704;10.004;2023-07-02T05:42:22;17.33;;;5.60;;
45065;SDS011;30830;53.704;10.004;2023-07-02T05:44:47;10.40;;;5.72;;
45065;SDS011;30830;53.704;10.004;2023-07-02T05:47:13;14.05;;;6.20;;
45065;SDS011;30830;53.704;10.004;2023-07-02T05:49:38;16.25;;;6.65;;
45065;SDS011;30830;53.704;10.004;2023-07-02T05:52:05;19.00;;;6.57;;
45065;SDS011;30830;53.704;10.004;2023-07-02T05:54:31;16.23;;;6.13;;
45065;SDS011;30830;53.704;10.004;2023-07-02T05:56:56;12.38;;;5.88;;
45065;SDS011;30830;53.704;10.004;2023-07-02T05:59:22;18.17;;;7.57;;
45065;SDS011;30830;53.704;10.004;2023-07-02T06:01:48;17.92;;;7.32;;
45065;SDS011;30830;53.704;10.004;2023-07-02T06:04:13;12.32;;;6.07;;
45065;SDS011;30830;53.704;10.004;2023-07-02T06:06:39;19.58;;;6.30;;
45065;SDS011;30830;53.704;10.004;2023-07-02T06:09:04;18.45;;;7.45;;
45065;SDS011;30830;53.704;10.004;2023-07-02T06:11:30;13.25;;;6.22;;
45065;SDS011;30830;53.704;10.004;2023-07-02T06:13:55;22.08;;;7.00;;
45065;SDS011;30830;53.704;10.004;2023-07-02T06:16:21;16.85;;;6.57;;
45065;SDS011;30830;53.704;10.004;2023-07-02T06:18:47;18.05;;;7.13;;
45065;SDS011;30830;53.704;10.004;2023-07-02T06:21:12;18.75;;;7.07;;
45065;SDS011;30830;53.704;10.004;2023-07-02T06:23:41;16.08;;;6.70;;
45065;SDS011;30830;53.704;10.004;2023-07-02T06:26:07;18.60;;;6.97;;
45065;SDS011;30830;53.704;10.004;2023-07-02T06:28:33;16.95;;;6.78;;
45065;SDS011;30830;53.704;10.004;2023-07-02T06:30:58;18.95;;;6.93;;
45065;SDS011;30830;53.704;10.004;2023-07-02T06:33:24;16.23;;;6.97;;
45065;SDS011;30830;53.704;10.004;2023-07-02T06:35:49;12.77;;;5.97;;
45065;SDS011;30830;53.704;10.004;2023-07-02T06:38:15;12.95;;;6.22;;
45065;SDS011;30830;53.704;10.004;2023-07-02T06:40:41;12.43;;;5.97;;
45065;SDS011;30830;53.704;10.004;2023-07-02T06:43:06;14.85;;;5.90;;
45065;SDS011;30830;53.704;10.004;2023-07-02T06:45:32;14.10;;;6.05;;
45065;SDS011;30830;53.704;10.004;2023-07-02T06:47:57;13.30;;;6.13;;
45065;SDS011;30830;53.704;10.004;2023-07-02T06:50:23;15.50;;;5.88;;
45065;SDS011;30830;53.704;10.004;2023-07-02T06:52:48;12.95;;;6.00;;
45065;SDS011;30830;53.704;10.004;2023-07-02T06:55:14;15.10;;;6.07;;
45065;SDS011;30830;53.704;10.004;2023-07-02T06:57:43;15.80;;;5.95;;
45065;SDS011;30830;53.704;10.004;2023-07-02T07:00:10;13.02;;;5.72;;
45065;SDS011;30830;53.704;10.004;2023-07-02T07:02:36;17.05;;;6.47;;
45065;SDS011;30830;53.704;10.004;2023-07-02T07:05:02;13.82;;;6.22;;
45065;SDS011;30830;53.704;10.004;2023-07-02T07:07:28;11.65;;;5.90;;
45065;SDS011;30830;53.704;10.004;2023-07-02T07:09:53;15.57;;;6.40;;
45065;SDS011;30830;53.704;10.004;2023-07-02T07:12:19;13.50;;;6.65;;
45065;SDS011;30830;53.704;10.004;2023-07-02T07:14:44;11.68;;;5.68;;
45065;SDS011;30830;53.704;10.004;2023-07-02T07:17:11;10.50;;;4.65;;
45065;SDS011;30830;53.704;10.004;2023-07-02T07:19:36;15.23;;;5.53;;
45065;SDS011;30830;53.704;10.004;2023-07-02T07:22:02;16.02;;;5.57;;
45065;SDS011;30830;53.704;10.004;2023-07-02T07:24:28;16.08;;;6.50;;
45065;SDS011;30830;53.704;10.004;2023-07-02T07:26:53;12.35;;;5.65;;
45065;SDS011;30830;53.704;10.004;2023-07-02T07:29:19;16.17;;;7.25;;
45065;SDS011;30830;53.704;10.004;2023-07-02T07:31:44;16.65;;;7.10;;
45065;SDS011;30830;53.704;10.004;2023-07-02T07:34:11;20.55;;;6.25;;
45065;SDS011;30830;53.704;10.004;2023-07-02T07:36:36;14.05;;;6.55;;
45065;SDS011;30830;53.704;10.004;2023-07-02T07:39:02;16.80;;;6.28;;
45065;SDS011;30830;53.704;10.004;2023-07-02T07:41:28;20.92;;;7.18;;
45065;SDS011;30830;53.704;10.004;2023-07-02T07:43:53;21.55;;;6.82;;
45065;SDS011;30830;53.704;10.004;2023-07-02T07:46:19;17.75;;;7.72;;
45065;SDS011;30830;53.704;10.004;2023-07-02T07:48:44;15.85;;;5.43;;
45065;SDS011;30830;53.704;10.004;2023-07-02T07:51:10;17.23;;;6.65;;
45065;SDS011;30830;53.704;10.004;2023-07-02T07:53:38;16.52;;;6.18;;
45065;SDS011;30830;53.704;10.004;2023-07-02T07:56:04;14.07;;;6.72;;
45065;SDS011;30830;53.704;10.004;2023-07-02T07:58:30;14.77;;;6.65;;
45065;SDS011;30830;53.704;10.004;2023-07-02T08:00:57;15.32;;;6.53;;
45065;SDS011;30830;53.704;10.004;2023-07-02T08:03:22;15.15;;;5.93;;
45065;SDS011;30830;53.704;10.004;2023-07-02T08:05:48;14.80;;;6.40;;
45065;SDS011;30830;53.704;10.004;2023-07-02T08:08:14;11.60;;;5.72;;
45065;SDS011;30830;53.704;10.004;2023-07-02T08:10:39;17.70;;;6.35;;
45065;SDS011;30830;53.704;10.004;2023-07-02T08:13:05;19.63;;;6.60;;
45065;SDS011;30830;53.704;10.004;2023-07-02T08:15:30;11.63;;;6.15;;
45065;SDS011;30830;53.704;10.004;2023-07-02T08:17:56;12.40;;;5.78;;
45065;SDS011;30830;53.704;10.004;2023-07-02T08:20:23;12.60;;;6.35;;
45065;SDS011;30830;53.704;10.004;2023-07-02T08:22:49;9.98;;;6.38;;
45065;SDS011;30830;53.704;10.004;2023-07-02T08:25:16;17.98;;;6.05;;
45065;SDS011;30830;53.704;10.004;2023-07-02T08:27:42;14.95;;;5.75;;
45065;SDS011;30830;53.704;10.004;2023-07-02T08:30:08;12.38;;;5.35;;
45065;SDS011;30830;53.704;10.004;2023-07-02T08:32:34;14.30;;;6.03;;
45065;SDS011;30830;53.704;10.004;2023-07-02T08:35:00;12.98;;;6.43;;
45065;SDS011;30830;53.704;10.004;2023-07-02T08:37:25;11.57;;;6.32;;
45065;SDS011;30830;53.704;10.004;2023-07-02T08:39:51;16.15;;;6.43;;
45065;SDS011;30830;53.704;10.004;2023-07-02T08:42:17;13.40;;;6.43;;
45065;SDS011;30830;53.704;10.004;2023-07-02T08:44:46;12.35;;;6.47;;
45065;SDS011;30830;53.704;10.004;2023-07-02T08:47:12;14.38;;;5.55;;
45065;SDS011;30830;53.704;10.004;2023-07-02T08:49:38;16.42;;;5.57;;
45065;SDS011;30830;53.704;10.004;2023-07-02T08:52:04;13.18;;;6.60;;
45065;SDS011;30830;53.704;10.004;2023-07-02T08:54:30;14.27;;;6.43;;
45065;SDS011;30830;53.704;10.004;2023-07-02T08:56:56;11.75;;;5.63;;
45065;SDS011;30830;53.704;10.004;2023-07-02T08:59:22;11.02;;;5.70;;
45065;SDS011;30830;53.704;10.004;2023-07-02T09:01:48;12.93;;;5.97;;
45065;SDS011;30830;53.704;10.004;2023-07-02T09:04:17;15.23;;;5.90;;
45065;SDS011;30830;53.704;10.004;2023-07-02T09:06:49;16.05;;;6.32;;
45065;SDS011;30830;53.704;10.004;2023-07-02T09:09:31;10.65;;;5.78;;
45065;SDS011;30830;53.704;10.004;2023-07-02T09:11:57;15.02;;;5.47;;
45065;SDS011;30830;53.704;10.004;2023-07-02T09:14:26;11.10;;;4.90;;
45065;SDS011;30830;53.704;10.004;2023-07-02T09:17:03;11.85;;;5.13;;
45065;SDS011;30830;53.704;10.004;2023-07-02T09:19:36;12.93;;;4.35;;
45065;SDS011;30830;53.704;10.004;2023-07-02T09:22:13;7.45;;;4.68;;
45065;SDS011;30830;53.704;10.004;2023-07-02T09:24:40;9.98;;;4.22;;
45065;SDS011;30830;53.704;10.004;2023-07-02T09:27:06;6.65;;;4.38;;
45065;SDS011;30830;53.704;10.004;2023-07-02T09:29:32;7.38;;;3.70;;
45065;SDS011;30830;53.704;10.004;2023-07-02T09:31:59;11.13;;;3.28;;
45065;SDS011;30830;53.704;10.004;2023-07-02T09:34:30;9.00;;;4.10;;
45065;SDS011;30830;53.704;10.004;2023-07-02T09:37:00;8.68;;;3.22;;
45065;SDS011;30830;53.704;10.004;2023-07-02T09:39:29;10.55;;;4.35;;
45065;SDS011;30830;53.704;10.004;2023-07-02T09:41:57;7.50;;;3.78;;
45065;SDS011;30830;53.704;10.004;2023-07-02T09:47:03;8.40;;;4.05;;
45065;SDS011;30830;53.704;10.004;2023-07-02T09:49:34;8.02;;;3.78;;
45065;SDS011;30830;53.704;10.004;2023-07-02T09:52:02;9.80;;;3.80;;
45065;SDS011;30830;53.704;10.004;2023-07-02T09:54:29;15.43;;;4.53;;
45065;SDS011;30830;53.704;10.004;2023-07-02T09:56:56;8.38;;;3.67;;
45065;SDS011;30830;53.704;10.004;2023-07-02T09:59:24;10.68;;;4.97;;
45065;SDS011;30830;53.704;10.004;2023-07-02T10:01:50;8.43;;;4.43;;
45065;SDS011;30830;53.704;10.004;2023-07-02T10:04:17;13.93;;;4.40;;
45065;SDS011;30830;53.704;10.004;2023-07-02T10:06:47;12.40;;;4.13;;
45065;SDS011;30830;53.704;10.004;2023-07-02T10:09:15;8.05;;;4.05;;
45065;SDS011;30830;53.704;10.004;2023-07-02T10:11:42;7.93;;;4.82;;
45065;SDS011;30830;53.704;10.004;2023-07-02T10:14:08;8.55;;;3.35;;
45065;SDS011;30830;53.704;10.004;2023-07-02T10:16:33;12.57;;;4.15;;
45065;SDS011;30830;53.704;10.004;2023-07-02T10:19:09;8.43;;;3.45;;
45065;SDS011;30830;53.704;10.004;2023-07-02T10:21:38;8.48;;;3.03;;
45065;SDS011;30830;53.704;10.004;2023-07-02T10:24:13;8.75;;;3.28;;
45065;SDS011;30830;53.704;10.004;2023-07-02T10:27:01;8.23;;;2.97;;
45065;SDS011;30830;53.704;10.004;2023-07-02T10:29:28;7.22;;;3.05;;
45065;SDS011;30830;53.704;10.004;2023-07-02T10:31:55;5.57;;;2.80;;
45065;SDS011;30830;53.704;10.004;2023-07-02T10:34:34;7.93;;;3.63;;
45065;SDS011;30830;53.704;10.004;2023-07-02T10:37:01;6.82;;;3.03;;
45065;SDS011;30830;53.704;10.004;2023-07-02T10:39:28;4.75;;;2.58;;
45065;SDS011;30830;53.704;10.004;2023-07-02T10:42:03;7.30;;;2.60;;
45065;SDS011;30830;53.704;10.004;2023-07-02T10:44:33;4.80;;;2.15;;
45065;SDS011;30830;53.704;10.004;2023-07-02T10:46:59;6.93;;;3.65;;
45065;SDS011;30830;53.704;10.004;2023-07-02T10:49:31;6.68;;;3.22;;
45065;SDS011;30830;53.704;10.004;2023-07-02T10:52:00;9.05;;;3.13;;
45065;SDS011;30830;53.704;10.004;2023-07-02T10:54:44;9.07;;;3.22;;
45065;SDS011;30830;53.704;10.004;2023-07-02T10:57:14;8.68;;;2.33;;
45065;SDS011;30830;53.704;10.004;2023-07-02T10:59:45;11.02;;;2.67;;
45065;SDS011;30830;53.704;10.004;2023-07-02T11:02:12;6.15;;;3.03;;
45065;SDS011;30830;53.704;10.004;2023-07-02T11:04:37;4.60;;;2.03;;
45065;SDS011;30830;53.704;10.004;2023-07-02T11:07:03;5.80;;;2.47;;
45065;SDS011;30830;53.704;10.004;2023-07-02T11:09:29;4.70;;;1.98;;
45065;SDS011;30830;53.704;10.004;2023-07-02T11:11:59;7.82;;;2.35;;
45065;SDS011;30830;53.704;10.004;2023-07-02T11:14:35;9.75;;;2.50;;
45065;SDS011;30830;53.704;10.004;2023-07-02T11:17:05;6.13;;;2.40;;
45065;SDS011;30830;53.704;10.004;2023-07-02T11:19:31;10.95;;;2.75;;
45065;SDS011;30830;53.704;10.004;2023-07-02T11:21:58;7.63;;;2.53;;
45065;SDS011;30830;53.704;10.004;2023-07-02T11:27:03;6.15;;;2.20;;
45065;SDS011;30830;53.704;10.004;2023-07-02T11:29:33;5.15;;;2.85;;
45065;SDS011;30830;53.704;10.004;2023-07-02T11:32:09;4.63;;;2.50;;
45065;SDS011;30830;53.704;10.004;2023-07-02T11:34:37;6.68;;;2.35;;
45065;SDS011;30830;53.704;10.004;2023-07-02T11:37:03;6.35;;;2.72;;
45065;SDS011;30830;53.704;10.004;2023-07-02T11:39:30;6.53;;;2.15;;
45065;SDS011;30830;53.704;10.004;2023-07-02T11:41:56;6.82;;;2.95;;
45065;SDS011;30830;53.704;10.004;2023-07-02T11:44:21;3.97;;;2.38;;
45065;SDS011;30830;53.704;10.004;2023-07-02T11:46:47;16.38;;;11.40;;
45065;SDS011;30830;53.704;10.004;2023-07-02T11:49:13;6.63;;;2.63;;
45065;SDS011;30830;53.704;10.004;2023-07-02T11:51:39;8.43;;;3.28;;
45065;SDS011;30830;53.704;10.004;2023-07-02T11:54:06;6.60;;;2.58;;
45065;SDS011;30830;53.704;10.004;2023-07-02T11:56:32;11.43;;;3.92;;
45065;SDS011;30830;53.704;10.004;2023-07-02T11:58:58;7.97;;;2.63;;
45065;SDS011;30830;53.704;10.004;2023-07-02T12:01:24;10.90;;;2.83;;
45065;SDS011;30830;53.704;10.004;2023-07-02T12:03:50;4.95;;;2.30;;
45065;SDS011;30830;53.704;10.004;2023-07-02T12:06:16;7.07;;;3.20;;
45065;SDS011;30830;53.704;10.004;2023-07-02T12:08:41;7.35;;;2.50;;
45065;SDS011;30830;53.704;10.004;2023-07-02T12:11:07;12.07;;;2.70;;
45065;SDS011;30830;53.704;10.004;2023-07-02T12:13:33;5.40;;;2.47;;
45065;SDS011;30830;53.704;10.004;2023-07-02T12:15:58;8.23;;;3.92;;
45065;SDS011;30830;53.704;10.004;2023-07-02T12:18:24;7.95;;;3.15;;
45065;SDS011;30830;53.704;10.004;2023-07-02T12:20:49;6.63;;;3.15;;
45065;SDS011;30830;53.704;10.004;2023-07-02T12:23:15;11.05;;;2.80;;
45065;SDS011;30830;53.704;10.004;2023-07-02T12:25:41;6.25;;;3.22;;
45065;SDS011;30830;53.704;10.004;2023-07-02T12:28:06;10.05;;;3.63;;
45065;SDS011;30830;53.704;10.004;2023-07-02T12:30:32;6.97;;;2.65;;
45065;SDS011;30830;53.704;10.004;2023-07-02T12:32:58;6.38;;;2.88;;
45065;SDS011;30830;53.704;10.004;2023-07-02T12:35:23;5.00;;;2.35;;
45065;SDS011;30830;53.704;10.004;2023-07-02T12:37:50;4.95;;;2.47;;
45065;SDS011;30830;53.704;10.004;2023-07-02T12:40:16;7.18;;;2.50;;
45065;SDS011;30830;53.704;10.004;2023-07-02T12:42:43;7.95;;;3.25;;
45065;SDS011;30830;53.704;10.004;2023-07-02T12:45:10;7.95;;;2.63;;
45065;SDS011;30830;53.704;10.004;2023-07-02T12:47:37;12.32;;;3.08;;
45065;SDS011;30830;53.704;10.004;2023-07-02T12:50:04;5.10;;;2.75;;
45065;SDS011;30830;53.704;10.004;2023-07-02T12:52:31;8.63;;;2.28;;
45065;SDS011;30830;53.704;10.004;2023-07-02T12:54:57;8.15;;;2.25;;
45065;SDS011;30830;53.704;10.004;2023-07-02T12:57:23;8.35;;;2.88;;
45065;SDS011;30830;53.704;10.004;2023-07-02T12:59:48;5.70;;;2.30;;
45065;SDS011;30830;53.704;10.004;2023-07-02T13:02:14;5.45;;;1.63;;
45065;SDS011;30830;53.704;10.004;2023-07-02T13:04:39;6.15;;;2.38;;
45065;SDS011;30830;53.704;10.004;2023-07-02T13:07:05;8.95;;;2.00;;
45065;SDS011;30830;53.704;10.004;2023-07-02T13:09:31;4.18;;;1.80;;
45065;SDS011;30830;53.704;10.004;2023-07-02T13:11:57;8.77;;;2.38;;
45065;SDS011;30830;53.704;10.004;2023-07-02T13:14:22;3.63;;;1.65;;
45065;SDS011;30830;53.704;10.004;2023-07-02T13:16:48;3.42;;;1.50;;
45065;SDS011;30830;53.704;10.004;2023-07-02T13:19:13;5.60;;;1.65;;
45065;SDS011;30830;53.704;10.004;2023-07-02T13:21:40;3.50;;;1.55;;
45065;SDS011;30830;53.704;10.004;2023-07-02T13:24:06;5.43;;;1.77;;
45065;SDS011;30830;53.704;10.004;2023-07-02T13:26:31;5.95;;;2.35;;
45065;SDS011;30830;53.704;10.004;2023-07-02T13:28:57;7.50;;;1.63;;
45065;SDS011;30830;53.704;10.004;2023-07-02T13:31:23;4.72;;;1.70;;
45065;SDS011;30830;53.704;10.004;2023-07-02T13:33:48;6.32;;;2.17;;
45065;SDS011;30830;53.704;10.004;2023-07-02T13:36:15;3.63;;;1.63;;
45065;SDS011;30830;53.704;10.004;2023-07-02T13:38:41;4.05;;;1.80;;
45065;SDS011;30830;53.704;10.004;2023-07-02T13:41:06;7.32;;;2.08;;
45065;SDS011;30830;53.704;10.004;2023-07-02T13:43:32;2.47;;;1.52;;
45065;SDS011;30830;53.704;10.004;2023-07-02T13:45:58;9.88;;;2.33;;
45065;SDS011;30830;53.704;10.004;2023-07-02T13:48:23;8.45;;;1.85;;
45065;SDS011;30830;53.704;10.004;2023-07-02T13:50:49;6.10;;;2.22;;
45065;SDS011;30830;53.704;10.004;2023-07-02T13:53:14;9.10;;;1.90;;
45065;SDS011;30830;53.704;10.004;2023-07-02T13:55:40;3.88;;;1.40;;
45065;SDS011;30830;53.704;10.004;2023-07-02T13:58:05;6.47;;;1.80;;
45065;SDS011;30830;53.704;10.004;2023-07-02T14:00:31;5.78;;;2.10;;
45065;SDS011;30830;53.704;10.004;2023-07-02T14:02:57;6.22;;;2.08;;
45065;SDS011;30830;53.704;10.004;2023-07-02T14:05:23;4.25;;;2.13;;
45065;SDS011;30830;53.704;10.004;2023-07-02T14:07:49;2.90;;;2.13;;
45065;SDS011;30830;53.704;10.004;2023-07-02T14:10:14;7.57;;;2.33;;
45065;SDS011;30830;53.704;10.004;2023-07-02T14:12:40;3.80;;;2.10;;
45065;SDS011;30830;53.704;10.004;2023-07-02T14:15:07;6.47;;;2.05;;
45065;SDS011;30830;53.704;10.004;2023-07-02T14:17:33;3.60;;;1.55;;
45065;SDS011;30830;53.704;10.004;2023-07-02T14:19:59;4.57;;;2.35;;
45065;SDS011;30830;53.704;10.004;2023-07-02T14:22:25;4.03;;;1.77;;
45065;SDS011;30830;53.704;10.004;2023-07-02T14:24:50;3.65;;;1.40;;
45065;SDS011;30830;53.704;10.004;2023-07-02T14:27:16;4.25;;;1.63;;
45065;SDS011;30830;53.704;10.004;2023-07-02T14:29:42;7.15;;;1.60;;
45065;SDS011;30830;53.704;10.004;2023-07-02T14:32:07;6.05;;;2.25;;